sensor_id;sensor_type;location;lat;lon;timestamp;pressure;altitude;pressure_sealevel;temperature;humidity
41234;BME280;26968;42.686;23.352;2022-10-22T00:01:08;96060.44;;;9.48;65.45
41234;BME280;26968;42.686;23.352;2022-10-22T00:03:33;96066.13;;;9.56;65.58
41234;BME280;26968;42.686;23.352;2022-10-22T00:05:59;96076.88;;;9.66;65.62
41234;BME280;26968;42.686;23.352;2022-10-22T00:08:24;96094.91;;;9.69;66.01
41234;BME280;26968;42.686;23.352;2022-10-22T00:10:49;96114.16;;;9.82;65.35
41234;BME280;26968;42.686;23.352;2022-10-22T00:13:15;96064.66;;;9.44;65.20
41234;BME280;26968;42.686;23.352;2022-10-22T00:15:40;96065.44;;;9.44;66.12
41234;BME280;26968;42.686;23.352;2022-10-22T00:18:06;96123.00;;;9.71;65.73
41234;BME280;26968;42.686;23.352;2022-10-22T00:20:31;96054.16;;;9.32;65.50
41234;BME280;26968;42.686;23.352;2022-10-22T00:22:57;96065.63;;;9.38;65.85
41234;BME280;26968;42.686;23.352;2022-10-22T00:25:23;96093.66;;;9.55;65.77
41234;BME280;26968;42.686;23.352;2022-10-22T00:27:48;96117.41;;;9.67;65.61
41234;BME280;26968;42.686;23.352;2022-10-22T00:30:14;96113.22;;;9.54;66.25
41234;BME280;26968;42.686;23.352;2022-10-22T00:32:39;96085.03;;;9.43;66.57
41234;BME280;26968;42.686;23.352;2022-10-22T00:35:06;96033.81;;;9.16;66.14
41234;BME280;26968;42.686;23.352;2022-10-22T00:37:31;96069.09;;;9.38;65.86
41234;BME280;26968;42.686;23.352;2022-10-22T00:39:56;96019.06;;;9.03;66.24
41234;BME280;26968;42.686;23.352;2022-10-22T00:42:24;96057.47;;;9.22;66.04
41234;BME280;26968;42.686;23.352;2022-10-22T00:45:26;96095.09;;;9.46;66.47
41234;BME280;26968;42.686;23.352;2022-10-22T00:52:51;96054.03;;;9.05;67.04
41234;BME280;26968;42.686;23.352;2022-10-22T00:55:19;96102.44;;;9.39;67.08
41234;BME280;26968;42.686;23.352;2022-10-22T00:57:45;96016.38;;;8.81;67.09
41234;BME280;26968;42.686;23.352;2022-10-22T01:00:11;96092.63;;;9.40;66.96
41234;BME280;26968;42.686;23.352;2022-10-22T01:02:37;96089.19;;;9.39;66.66
41234;BME280;26968;42.686;23.352;2022-10-22T01:05:03;95982.41;;;8.73;66.41
41234;BME280;26968;42.686;23.352;2022-10-22T01:07:28;96034.53;;;9.11;66.88
41234;BME280;26968;42.686;23.352;2022-10-22T01:10:14;96022.53;;;9.04;66.77
41234;BME280;26968;42.686;23.352;2022-10-22T01:12:49;96034.53;;;9.11;66.72
41234;BME280;26968;42.686;23.352;2022-10-22T01:18:23;96049.94;;;9.14;66.54
41234;BME280;26968;42.686;23.352;2022-10-22T01:21:10;96063.81;;;9.21;66.92
41234;BME280;26968;42.686;23.352;2022-10-22T01:31:14;96054.75;;;9.17;67.20
41234;BME280;26968;42.686;23.352;2022-10-22T01:33:42;96033.34;;;9.02;66.77
41234;BME280;26968;42.686;23.352;2022-10-22T01:36:11;95997.47;;;8.89;67.26
41234;BME280;26968;42.686;23.352;2022-10-22T01:38:37;95978.22;;;8.77;66.95
41234;BME280;26968;42.686;23.352;2022-10-22T01:41:04;95956.13;;;8.67;66.41
41234;BME280;26968;42.686;23.352;2022-10-22T01:43:30;96012.41;;;9.01;66.58
41234;BME280;26968;42.686;23.352;2022-10-22T01:45:59;95976.66;;;8.76;66.99
41234;BME280;26968;42.686;23.352;2022-10-22T01:51:12;96039.09;;;9.16;66.79
41234;BME280;26968;42.686;23.352;2022-10-22T01:54:24;96034.31;;;9.13;66.83
41234;BME280;26968;42.686;23.352;2022-10-22T02:02:33;96039.38;;;9.14;67.25
41234;BME280;26968;42.686;23.352;2022-10-22T02:07:51;96048.81;;;9.10;66.79
41234;BME280;26968;42.686;23.352;2022-10-22T02:10:18;96023.09;;;8.89;66.45
41234;BME280;26968;42.686;23.352;2022-10-22T02:12:48;95976.94;;;8.63;66.59
41234;BME280;26968;42.686;23.352;2022-10-22T02:15:14;95994.75;;;8.68;67.55
41234;BME280;26968;42.686;23.352;2022-10-22T02:17:42;96044.16;;;9.01;67.33
41234;BME280;26968;42.686;23.352;2022-10-22T02:20:24;96009.25;;;8.82;66.98
41234;BME280;26968;42.686;23.352;2022-10-22T02:22:51;95946.84;;;8.31;67.25
41234;BME280;26968;42.686;23.352;2022-10-22T02:25:17;95957.34;;;8.42;67.81
41234;BME280;26968;42.686;23.352;2022-10-22T02:27:50;96014.22;;;8.78;67.27
41234;BME280;26968;42.686;23.352;2022-10-22T02:30:20;95961.59;;;8.43;67.27
41234;BME280;26968;42.686;23.352;2022-10-22T02:32:53;95993.72;;;8.52;67.51
41234;BME280;26968;42.686;23.352;2022-10-22T02:35:23;96007.56;;;8.59;67.41
41234;BME280;26968;42.686;23.352;2022-10-22T02:37:51;95990.50;;;8.50;67.67
41234;BME280;26968;42.686;23.352;2022-10-22T02:40:17;96047.66;;;8.84;67.67
41234;BME280;26968;42.686;23.352;2022-10-22T02:42:46;96048.19;;;8.86;67.60
41234;BME280;26968;42.686;23.352;2022-10-22T02:45:12;96037.06;;;8.68;67.52
41234;BME280;26968;42.686;23.352;2022-10-22T02:47:38;95984.97;;;8.35;67.63
41234;BME280;26968;42.686;23.352;2022-10-22T02:50:03;96020.84;;;8.47;67.79
41234;BME280;26968;42.686;23.352;2022-10-22T02:52:29;96008.69;;;8.46;67.68
41234;BME280;26968;42.686;23.352;2022-10-22T02:54:54;95960.66;;;8.21;68.02
41234;BME280;26968;42.686;23.352;2022-10-22T02:57:20;96016.22;;;8.55;67.64
41234;BME280;26968;42.686;23.352;2022-10-22T02:59:45;96012.44;;;8.50;67.69
41234;BME280;26968;42.686;23.352;2022-10-22T03:02:11;95965.78;;;8.28;67.45
41234;BME280;26968;42.686;23.352;2022-10-22T03:04:36;96053.66;;;8.80;67.81
41234;BME280;26968;42.686;23.352;2022-10-22T03:07:02;95986.25;;;8.32;67.49
41234;BME280;26968;42.686;23.352;2022-10-22T03:09:27;96049.88;;;8.76;67.29
41234;BME280;26968;42.686;23.352;2022-10-22T03:11:53;96032.63;;;8.57;67.65
41234;BME280;26968;42.686;23.352;2022-10-22T03:14:18;96026.94;;;8.48;67.65
41234;BME280;26968;42.686;23.352;2022-10-22T03:16:44;96046.19;;;8.60;68.20
41234;BME280;26968;42.686;23.352;2022-10-22T03:19:09;96053.78;;;8.57;67.85
41234;BME280;26968;42.686;23.352;2022-10-22T03:21:39;96047.06;;;8.49;67.82
41234;BME280;26968;42.686;23.352;2022-10-22T03:24:20;95942.84;;;7.83;67.89
41234;BME280;26968;42.686;23.352;2022-10-22T03:26:48;96016.81;;;8.28;68.22
41234;BME280;26968;42.686;23.352;2022-10-22T03:29:15;95963.91;;;7.95;68.20
41234;BME280;26968;42.686;23.352;2022-10-22T03:31:41;96039.28;;;8.42;68.26
41234;BME280;26968;42.686;23.352;2022-10-22T03:34:07;95984.41;;;8.04;68.27
41234;BME280;26968;42.686;23.352;2022-10-22T03:36:33;95984.66;;;8.03;68.70
41234;BME280;26968;42.686;23.352;2022-10-22T03:39:00;95998.13;;;8.18;68.31
41234;BME280;26968;42.686;23.352;2022-10-22T03:41:26;95957.94;;;7.99;68.65
41234;BME280;26968;42.686;23.352;2022-10-22T03:43:52;95961.38;;;8.00;68.53
41234;BME280;26968;42.686;23.352;2022-10-22T03:46:18;96030.88;;;8.45;68.40
41234;BME280;26968;42.686;23.352;2022-10-22T03:48:44;96026.22;;;8.36;68.46
41234;BME280;26968;42.686;23.352;2022-10-22T03:51:10;95987.13;;;8.09;68.66
41234;BME280;26968;42.686;23.352;2022-10-22T03:53:35;96024.84;;;8.33;68.43
41234;BME280;26968;42.686;23.352;2022-10-22T03:56:01;96049.69;;;8.49;68.73
41234;BME280;26968;42.686;23.352;2022-10-22T03:58:26;96016.22;;;8.38;68.14
41234;BME280;26968;42.686;23.352;2022-10-22T04:00:52;96000.63;;;8.25;68.53
41234;BME280;26968;42.686;23.352;2022-10-22T04:03:17;95982.25;;;8.01;69.19
41234;BME280;26968;42.686;23.352;2022-10-22T04:05:43;95956.69;;;7.90;69.24
41234;BME280;26968;42.686;23.352;2022-10-22T04:08:08;96039.06;;;8.44;68.65
41234;BME280;26968;42.686;23.352;2022-10-22T04:10:34;96039.34;;;8.47;68.63
41234;BME280;26968;42.686;23.352;2022-10-22T04:13:00;96027.75;;;8.48;68.76
41234;BME280;26968;42.686;23.352;2022-10-22T04:15:25;95978.03;;;8.00;69.14
41234;BME280;26968;42.686;23.352;2022-10-22T04:17:52;95941.09;;;7.89;68.83
41234;BME280;26968;42.686;23.352;2022-10-22T04:20:18;95926.34;;;7.76;68.93
41234;BME280;26968;42.686;23.352;2022-10-22T04:22:43;95972.75;;;8.17;68.79
41234;BME280;26968;42.686;23.352;2022-10-22T04:25:09;95949.28;;;8.04;68.98
41234;BME280;26968;42.686;23.352;2022-10-22T04:27:35;95975.78;;;8.09;68.91
41234;BME280;26968;42.686;23.352;2022-10-22T04:30:01;95923.75;;;7.93;68.76
41234;BME280;26968;42.686;23.352;2022-10-22T04:32:27;95947.63;;;8.14;68.76
41234;BME280;26968;42.686;23.352;2022-10-22T04:34:52;96013.31;;;8.56;69.07
41234;BME280;26968;42.686;23.352;2022-10-22T04:37:18;95877.13;;;7.70;68.57
41234;BME280;26968;42.686;23.352;2022-10-22T04:39:44;95971.25;;;8.21;68.74
41234;BME280;26968;42.686;23.352;2022-10-22T04:42:09;96041.56;;;8.67;68.40
41234;BME280;26968;42.686;23.352;2022-10-22T04:44:35;96029.84;;;8.63;68.28
41234;BME280;26968;42.686;23.352;2022-10-22T04:47:01;95965.00;;;8.27;68.13
41234;BME280;26968;42.686;23.352;2022-10-22T04:49:26;96002.22;;;8.54;67.77
41234;BME280;26968;42.686;23.352;2022-10-22T04:51:51;96019.34;;;8.68;68.11
41234;BME280;26968;42.686;23.352;2022-10-22T04:54:17;95967.84;;;8.37;67.83
41234;BME280;26968;42.686;23.352;2022-10-22T04:56:42;96015.75;;;8.58;67.69
41234;BME280;26968;42.686;23.352;2022-10-22T04:59:09;96040.59;;;8.73;67.48
41234;BME280;26968;42.686;23.352;2022-10-22T05:01:39;95990.19;;;8.46;67.71
41234;BME280;26968;42.686;23.352;2022-10-22T05:04:06;96040.50;;;8.85;67.52
41234;BME280;26968;42.686;23.352;2022-10-22T05:06:34;95964.16;;;8.38;67.12
41234;BME280;26968;42.686;23.352;2022-10-22T05:09:03;95997.22;;;8.58;67.00
41234;BME280;26968;42.686;23.352;2022-10-22T05:11:37;96059.56;;;8.87;67.43
41234;BME280;26968;42.686;23.352;2022-10-22T05:14:04;96065.34;;;8.67;67.22
41234;BME280;26968;42.686;23.352;2022-10-22T05:16:31;95803.06;;;6.86;67.65
41234;BME280;26968;42.686;23.352;2022-10-22T05:18:58;95930.28;;;7.90;67.55
41234;BME280;26968;42.686;23.352;2022-10-22T05:21:25;96060.28;;;8.66;67.51
41234;BME280;26968;42.686;23.352;2022-10-22T05:23:51;95947.09;;;7.84;67.09
41234;BME280;26968;42.686;23.352;2022-10-22T05:26:19;96006.69;;;8.37;67.19
41234;BME280;26968;42.686;23.352;2022-10-22T05:28:46;96049.72;;;8.82;66.59
41234;BME280;26968;42.686;23.352;2022-10-22T05:31:12;96059.81;;;8.85;66.22
41234;BME280;26968;42.686;23.352;2022-10-22T05:33:38;96011.72;;;8.55;66.75
41234;BME280;26968;42.686;23.352;2022-10-22T05:36:05;95998.53;;;8.38;66.12
41234;BME280;26968;42.686;23.352;2022-10-22T05:38:34;96029.59;;;8.48;66.70
41234;BME280;26968;42.686;23.352;2022-10-22T05:41:00;96070.31;;;8.80;67.18
41234;BME280;26968;42.686;23.352;2022-10-22T05:43:26;96025.84;;;8.61;66.42
41234;BME280;26968;42.686;23.352;2022-10-22T05:45:52;95916.84;;;7.92;66.29
41234;BME280;26968;42.686;23.352;2022-10-22T05:48:17;96057.44;;;8.84;66.20
41234;BME280;26968;42.686;23.352;2022-10-22T05:50:43;96067.69;;;8.97;65.69
41234;BME280;26968;42.686;23.352;2022-10-22T05:53:11;96070.38;;;9.02;66.42
41234;BME280;26968;42.686;23.352;2022-10-22T05:55:36;96006.84;;;8.64;66.37
41234;BME280;26968;42.686;23.352;2022-10-22T05:58:05;96069.34;;;9.03;66.44
41234;BME280;26968;42.686;23.352;2022-10-22T06:00:30;96068.88;;;9.06;66.24
41234;BME280;26968;42.686;23.352;2022-10-22T06:02:56;96067.09;;;9.12;65.90
41234;BME280;26968;42.686;23.352;2022-10-22T06:05:21;95989.63;;;8.61;66.24
41234;BME280;26968;42.686;23.352;2022-10-22T06:07:47;96013.41;;;8.78;65.92
41234;BME280;26968;42.686;23.352;2022-10-22T06:10:17;96076.16;;;9.16;66.33
41234;BME280;26968;42.686;23.352;2022-10-22T06:12:45;96040.97;;;8.99;65.91
41234;BME280;26968;42.686;23.352;2022-10-22T06:15:12;96032.94;;;8.94;65.88
41234;BME280;26968;42.686;23.352;2022-10-22T06:17:38;96072.00;;;9.20;66.46
41234;BME280;26968;42.686;23.352;2022-10-22T06:20:04;96054.09;;;9.10;66.18
41234;BME280;26968;42.686;23.352;2022-10-22T06:22:29;95984.19;;;8.68;65.39
41234;BME280;26968;42.686;23.352;2022-10-22T06:24:55;96041.53;;;9.01;65.39
41234;BME280;26968;42.686;23.352;2022-10-22T06:27:20;96039.44;;;9.03;65.67
41234;BME280;26968;42.686;23.352;2022-10-22T06:29:47;96077.50;;;9.35;65.38
41234;BME280;26968;42.686;23.352;2022-10-22T06:32:12;96079.16;;;9.41;64.66
41234;BME280;26968;42.686;23.352;2022-10-22T06:34:38;95948.19;;;8.50;65.06
41234;BME280;26968;42.686;23.352;2022-10-22T06:37:03;96071.66;;;9.16;65.71
41234;BME280;26968;42.686;23.352;2022-10-22T06:39:29;95978.25;;;8.61;65.66
41234;BME280;26968;42.686;23.352;2022-10-22T06:41:54;96036.72;;;9.14;65.84
41234;BME280;26968;42.686;23.352;2022-10-22T06:44:20;96076.91;;;9.50;65.11
41234;BME280;26968;42.686;23.352;2022-10-22T06:46:49;96071.19;;;9.58;64.55
41234;BME280;26968;42.686;23.352;2022-10-22T06:49:16;95998.94;;;9.02;65.42
41234;BME280;26968;42.686;23.352;2022-10-22T06:51:42;96044.38;;;9.33;65.71
41234;BME280;26968;42.686;23.352;2022-10-22T06:54:08;96038.03;;;9.34;65.49
41234;BME280;26968;42.686;23.352;2022-10-22T06:56:33;96072.78;;;9.59;65.56
41234;BME280;26968;42.686;23.352;2022-10-22T06:58:59;96044.56;;;9.48;64.58
41234;BME280;26968;42.686;23.352;2022-10-22T07:01:31;96053.63;;;9.52;65.16
41234;BME280;26968;42.686;23.352;2022-10-22T07:03:57;95989.09;;;9.14;65.15
41234;BME280;26968;42.686;23.352;2022-10-22T07:06:24;96079.91;;;9.75;65.07
41234;BME280;26968;42.686;23.352;2022-10-22T07:08:50;96083.44;;;9.86;65.23
41234;BME280;26968;42.686;23.352;2022-10-22T07:11:21;96065.22;;;9.89;65.50
41234;BME280;26968;42.686;23.352;2022-10-22T07:13:48;96036.94;;;9.73;64.63
41234;BME280;26968;42.686;23.352;2022-10-22T07:16:14;96042.19;;;9.90;64.79
41234;BME280;26968;42.686;23.352;2022-10-22T07:18:41;96053.63;;;9.95;64.29
41234;BME280;26968;42.686;23.352;2022-10-22T07:21:07;96079.50;;;10.10;64.61
41234;BME280;26968;42.686;23.352;2022-10-22T07:23:33;96073.34;;;10.04;64.61
41234;BME280;26968;42.686;23.352;2022-10-22T07:25:59;96008.81;;;9.67;64.76
41234;BME280;26968;42.686;23.352;2022-10-22T07:28:26;95992.59;;;9.63;64.78
41234;BME280;26968;42.686;23.352;2022-10-22T07:30:53;96053.38;;;10.19;64.48
41234;BME280;26968;42.686;23.352;2022-10-22T07:33:18;96039.13;;;10.03;64.68
41234;BME280;26968;42.686;23.352;2022-10-22T07:35:44;96053.56;;;10.12;64.65
41234;BME280;26968;42.686;23.352;2022-10-22T07:38:10;95987.03;;;9.87;64.69
41234;BME280;26968;42.686;23.352;2022-10-22T07:40:35;96066.59;;;10.40;63.77
41234;BME280;26968;42.686;23.352;2022-10-22T07:43:01;96022.63;;;10.18;63.86
41234;BME280;26968;42.686;23.352;2022-10-22T07:45:27;96052.13;;;10.53;64.27
41234;BME280;26968;42.686;23.352;2022-10-22T07:47:52;96002.03;;;10.25;63.46
41234;BME280;26968;42.686;23.352;2022-10-22T07:50:18;95981.94;;;10.29;63.53
41234;BME280;26968;42.686;23.352;2022-10-22T07:52:43;96026.84;;;10.45;63.70
41234;BME280;26968;42.686;23.352;2022-10-22T07:55:09;96036.41;;;10.47;63.76
41234;BME280;26968;42.686;23.352;2022-10-22T07:57:35;96006.59;;;10.29;63.67
41234;BME280;26968;42.686;23.352;2022-10-22T08:00:05;96055.25;;;10.77;63.39
41234;BME280;26968;42.686;23.352;2022-10-22T08:02:30;96005.41;;;10.47;63.19
41234;BME280;26968;42.686;23.352;2022-10-22T08:04:57;96006.06;;;10.59;62.64
41234;BME280;26968;42.686;23.352;2022-10-22T08:07:23;96024.19;;;10.72;63.63
41234;BME280;26968;42.686;23.352;2022-10-22T08:09:49;96033.88;;;10.89;62.86
41234;BME280;26968;42.686;23.352;2022-10-22T08:12:14;95978.78;;;10.69;62.52
41234;BME280;26968;42.686;23.352;2022-10-22T08:14:40;96024.75;;;11.11;62.41
41234;BME280;26968;42.686;23.352;2022-10-22T08:17:05;96013.53;;;11.04;62.14
41234;BME280;26968;42.686;23.352;2022-10-22T08:19:31;95978.31;;;10.77;62.00
41234;BME280;26968;42.686;23.352;2022-10-22T08:21:57;95998.41;;;11.05;62.01
41234;BME280;26968;42.686;23.352;2022-10-22T08:24:23;96001.44;;;11.23;61.61
41234;BME280;26968;42.686;23.352;2022-10-22T08:26:51;95974.88;;;11.18;61.42
41234;BME280;26968;42.686;23.352;2022-10-22T08:29:18;96009.78;;;11.42;61.33
41234;BME280;26968;42.686;23.352;2022-10-22T08:31:45;96018.56;;;11.48;60.75
41234;BME280;26968;42.686;23.352;2022-10-22T08:34:11;95960.47;;;11.09;61.30
41234;BME280;26968;42.686;23.352;2022-10-22T08:36:36;96010.00;;;11.36;61.20
41234;BME280;26968;42.686;23.352;2022-10-22T08:39:02;96007.88;;;11.33;61.69
41234;BME280;26968;42.686;23.352;2022-10-22T08:41:28;96025.50;;;11.54;61.60
41234;BME280;26968;42.686;23.352;2022-10-22T08:46:33;96021.84;;;11.65;61.11
41234;BME280;26968;42.686;23.352;2022-10-22T08:49:04;95980.03;;;11.45;60.86
41234;BME280;26968;42.686;23.352;2022-10-22T08:51:35;96008.31;;;11.67;60.86
41234;BME280;26968;42.686;23.352;2022-10-22T08:54:16;96024.84;;;11.84;60.93
41234;BME280;26968;42.686;23.352;2022-10-22T08:56:49;95972.13;;;11.60;60.68
41234;BME280;26968;42.686;23.352;2022-10-22T08:59:24;96014.00;;;12.01;60.63
41234;BME280;26968;42.686;23.352;2022-10-22T09:01:52;96021.19;;;11.95;59.94
41234;BME280;26968;42.686;23.352;2022-10-22T09:04:29;96002.56;;;11.95;60.16
41234;BME280;26968;42.686;23.352;2022-10-22T09:06:58;96006.84;;;11.96;59.87
41234;BME280;26968;42.686;23.352;2022-10-22T09:09:28;95980.22;;;11.81;59.78
41234;BME280;26968;42.686;23.352;2022-10-22T09:11:57;95915.25;;;11.51;59.97
41234;BME280;26968;42.686;23.352;2022-10-22T09:14:24;96017.25;;;12.23;59.44
41234;BME280;26968;42.686;23.352;2022-10-22T09:17:13;96007.69;;;12.22;59.50
41234;BME280;26968;42.686;23.352;2022-10-22T09:22:51;95920.94;;;11.90;59.09
41234;BME280;26968;42.686;23.352;2022-10-22T09:25:22;95953.16;;;12.29;59.21
41234;BME280;26968;42.686;23.352;2022-10-22T09:27:50;95989.91;;;12.58;58.92
41234;BME280;26968;42.686;23.352;2022-10-22T09:30:19;95963.00;;;12.44;58.37
41234;BME280;26968;42.686;23.352;2022-10-22T09:32:47;95965.69;;;12.59;58.92
41234;BME280;26968;42.686;23.352;2022-10-22T09:35:21;95990.16;;;12.87;58.53
41234;BME280;26968;42.686;23.352;2022-10-22T09:37:51;95986.16;;;12.99;57.99
41234;BME280;26968;42.686;23.352;2022-10-22T09:40:17;95985.09;;;13.00;57.90
41234;BME280;26968;42.686;23.352;2022-10-22T09:42:45;95980.25;;;13.12;58.00
41234;BME280;26968;42.686;23.352;2022-10-22T09:45:18;95931.28;;;12.98;57.71
41234;BME280;26968;42.686;23.352;2022-10-22T09:47:44;95918.50;;;13.05;57.45
41234;BME280;26968;42.686;23.352;2022-10-22T09:50:38;95961.34;;;13.88;57.71
41234;BME280;26968;42.686;23.352;2022-10-22T09:53:17;95963.13;;;14.86;55.17
41234;BME280;26968;42.686;23.352;2022-10-22T09:55:52;95932.56;;;15.69;51.34
41234;BME280;26968;42.686;23.352;2022-10-22T09:58:19;95962.41;;;17.02;48.70
41234;BME280;26968;42.686;23.352;2022-10-22T10:00:53;95957.78;;;18.03;46.29
41234;BME280;26968;42.686;23.352;2022-10-22T10:03:26;95881.25;;;18.50;43.23
41234;BME280;26968;42.686;23.352;2022-10-22T10:05:58;95939.50;;;19.96;42.51
41234;BME280;26968;42.686;23.352;2022-10-22T10:08:24;95918.78;;;20.65;40.25
41234;BME280;26968;42.686;23.352;2022-10-22T10:10:53;95933.72;;;21.35;39.24
41234;BME280;26968;42.686;23.352;2022-10-22T10:16:21;95937.03;;;21.70;36.73
41234;BME280;26968;42.686;23.352;2022-10-22T10:27:27;95913.75;;;21.66;36.59
41234;BME280;26968;42.686;23.352;2022-10-22T10:30:02;95915.13;;;21.72;36.38
41234;BME280;26968;42.686;23.352;2022-10-22T10:33:02;95913.44;;;21.88;36.18
41234;BME280;26968;42.686;23.352;2022-10-22T10:35:46;95871.22;;;21.83;36.17
41234;BME280;26968;42.686;23.352;2022-10-22T10:44:11;95863.88;;;22.13;36.31
41234;BME280;26968;42.686;23.352;2022-10-22T10:49:30;95879.88;;;22.39;35.57
41234;BME280;26968;42.686;23.352;2022-10-22T10:57:39;95869.31;;;22.46;35.14
41234;BME280;26968;42.686;23.352;2022-10-22T11:00:14;95811.00;;;22.12;35.76
41234;BME280;26968;42.686;23.352;2022-10-22T11:05:29;95839.75;;;22.29;36.70
41234;BME280;26968;42.686;23.352;2022-10-22T11:08:00;95769.47;;;21.96;36.38
41234;BME280;26968;42.686;23.352;2022-10-22T11:13:10;95829.72;;;22.29;35.36
41234;BME280;26968;42.686;23.352;2022-10-22T11:15:39;95819.13;;;22.24;35.71
41234;BME280;26968;42.686;23.352;2022-10-22T11:21:12;95809.81;;;22.34;36.63
41234;BME280;26968;42.686;23.352;2022-10-22T11:23:54;95782.94;;;22.05;36.74
41234;BME280;26968;42.686;23.352;2022-10-22T11:26:36;95764.97;;;22.21;35.82
41234;BME280;26968;42.686;23.352;2022-10-22T11:29:03;95802.03;;;22.65;35.75
41234;BME280;26968;42.686;23.352;2022-10-22T11:31:33;95801.75;;;22.79;35.53
41234;BME280;26968;42.686;23.352;2022-10-22T11:36:40;95800.97;;;23.15;35.14
41234;BME280;26968;42.686;23.352;2022-10-22T11:39:06;95742.25;;;22.91;34.58
41234;BME280;26968;42.686;23.352;2022-10-22T11:41:33;95769.19;;;23.12;35.28
41234;BME280;26968;42.686;23.352;2022-10-22T11:44:21;95771.31;;;23.31;35.20
41234;BME280;26968;42.686;23.352;2022-10-22T11:46:56;95777.63;;;23.35;34.92
41234;BME280;26968;42.686;23.352;2022-10-22T11:49:27;95775.81;;;23.51;34.81
41234;BME280;26968;42.686;23.352;2022-10-22T11:54:57;95780.22;;;23.31;35.13
41234;BME280;26968;42.686;23.352;2022-10-22T11:57:36;95701.78;;;22.70;34.19
41234;BME280;26968;42.686;23.352;2022-10-22T12:00:09;95758.69;;;23.23;34.42
41234;BME280;26968;42.686;23.352;2022-10-22T12:02:44;95768.28;;;23.57;34.28
41234;BME280;26968;42.686;23.352;2022-10-22T12:07:58;95766.69;;;23.56;34.55
41234;BME280;26968;42.686;23.352;2022-10-22T12:10:28;95721.34;;;23.53;34.67
41234;BME280;26968;42.686;23.352;2022-10-22T12:13:10;95738.00;;;23.67;33.84
41234;BME280;26968;42.686;23.352;2022-10-22T12:15:46;95740.53;;;23.88;34.13
41234;BME280;26968;42.686;23.352;2022-10-22T12:18:13;95742.53;;;23.91;34.24
41234;BME280;26968;42.686;23.352;2022-10-22T12:20:39;95680.06;;;23.56;33.92
41234;BME280;26968;42.686;23.352;2022-10-22T12:23:05;95742.41;;;23.99;33.62
41234;BME280;26968;42.686;23.352;2022-10-22T12:25:33;95675.38;;;23.68;33.92
41234;BME280;26968;42.686;23.352;2022-10-22T12:28:00;95692.25;;;23.37;33.33
41234;BME280;26968;42.686;23.352;2022-10-22T12:30:29;95731.38;;;23.64;32.74
41234;BME280;26968;42.686;23.352;2022-10-22T12:32:57;95732.56;;;23.79;32.70
41234;BME280;26968;42.686;23.352;2022-10-22T12:35:31;95732.44;;;23.75;33.45
41234;BME280;26968;42.686;23.352;2022-10-22T12:38:00;95648.59;;;23.51;32.65
41234;BME280;26968;42.686;23.352;2022-10-22T12:40:28;95706.47;;;23.87;33.24
41234;BME280;26968;42.686;23.352;2022-10-22T12:42:59;95731.31;;;24.04;32.89
41234;BME280;26968;42.686;23.352;2022-10-22T12:45:28;95682.94;;;23.91;32.86
41234;BME280;26968;42.686;23.352;2022-10-22T12:48:24;95716.47;;;24.14;32.88
41234;BME280;26968;42.686;23.352;2022-10-22T12:50:56;95671.59;;;23.85;33.05
41234;BME280;26968;42.686;23.352;2022-10-22T12:53:37;95692.50;;;24.00;32.98
41234;BME280;26968;42.686;23.352;2022-10-22T12:56:06;95690.81;;;23.96;33.48
41234;BME280;26968;42.686;23.352;2022-10-22T12:58:37;95697.94;;;24.00;33.44
41234;BME280;26968;42.686;23.352;2022-10-22T13:01:04;95638.41;;;23.60;33.43
41234;BME280;26968;42.686;23.352;2022-10-22T13:03:51;95697.03;;;23.96;33.09
41234;BME280;26968;42.686;23.352;2022-10-22T13:06:28;95635.06;;;23.51;33.14
41234;BME280;26968;42.686;23.352;2022-10-22T13:11:33;95700.75;;;23.76;32.86
41234;BME280;26968;42.686;23.352;2022-10-22T13:14:17;95640.56;;;23.15;33.40
41234;BME280;26968;42.686;23.352;2022-10-22T13:17:13;95677.47;;;23.47;33.47
41234;BME280;26968;42.686;23.352;2022-10-22T13:22:39;95706.72;;;23.29;33.73
41234;BME280;26968;42.686;23.352;2022-10-22T13:27:53;95676.78;;;22.86;35.32
41234;BME280;26968;42.686;23.352;2022-10-22T13:30:53;95682.97;;;22.74;34.94
41234;BME280;26968;42.686;23.352;2022-10-22T13:33:23;95622.34;;;22.14;35.49
41234;BME280;26968;42.686;23.352;2022-10-22T13:35:50;95664.91;;;22.17;35.74
41234;BME280;26968;42.686;23.352;2022-10-22T13:38:22;95641.91;;;21.99;35.84
41234;BME280;26968;42.686;23.352;2022-10-22T13:40:48;95566.81;;;21.35;36.35
41234;BME280;26968;42.686;23.352;2022-10-22T13:43:15;95686.22;;;21.98;36.78
41234;BME280;26968;42.686;23.352;2022-10-22T13:45:40;95683.06;;;21.75;37.17
41234;BME280;26968;42.686;23.352;2022-10-22T13:48:12;95655.94;;;21.39;37.20
41234;BME280;26968;42.686;23.352;2022-10-22T13:50:40;95638.91;;;21.26;37.51
41234;BME280;26968;42.686;23.352;2022-10-22T13:53:09;95662.53;;;21.29;37.72
41234;BME280;26968;42.686;23.352;2022-10-22T13:55:42;95680.22;;;21.18;38.39
41234;BME280;26968;42.686;23.352;2022-10-22T13:58:11;95594.97;;;20.55;38.50
41234;BME280;26968;42.686;23.352;2022-10-22T14:00:38;95623.97;;;20.58;38.93
41234;BME280;26968;42.686;23.352;2022-10-22T14:03:11;95676.59;;;20.85;38.97
41234;BME280;26968;42.686;23.352;2022-10-22T14:05:37;95659.31;;;20.56;39.45
41234;BME280;26968;42.686;23.352;2022-10-22T14:08:10;95680.41;;;20.54;39.65
41234;BME280;26968;42.686;23.352;2022-10-22T14:10:36;95607.28;;;19.97;40.14
41234;BME280;26968;42.686;23.352;2022-10-22T14:13:01;95625.16;;;19.93;40.71
41234;BME280;26968;42.686;23.352;2022-10-22T14:15:27;95646.72;;;19.84;41.21
41234;BME280;26968;42.686;23.352;2022-10-22T14:17:58;95666.84;;;19.87;41.53
41234;BME280;26968;42.686;23.352;2022-10-22T14:20:27;95618.00;;;19.50;41.67
41234;BME280;26968;42.686;23.352;2022-10-22T14:22:53;95670.81;;;19.72;42.14
41234;BME280;26968;42.686;23.352;2022-10-22T14:25:21;95581.94;;;19.08;42.40
41234;BME280;26968;42.686;23.352;2022-10-22T14:27:47;95666.09;;;19.60;42.51